sensor_id;sensor_type;location;lat;lon;timestamp;pressure;altitude;pressure_sealevel;temperature;humidity
35151;BME280;55720;51.972;4.624;2023-02-20T00:02:13;101819.47;;;5.68;100.00
35151;BME280;55720;51.972;4.624;2023-02-20T00:04:38;101831.47;;;5.67;100.00
35151;BME280;55720;51.972;4.624;2023-02-20T00:07:04;101834.72;;;5.69;100.00
35151;BME280;55720;51.972;4.624;2023-02-20T00:09:29;101830.91;;;5.65;100.00
35151;BME280;55720;51.972;4.624;2023-02-20T00:11:54;101834.19;;;5.67;100.00
35151;BME280;55720;51.972;4.624;2023-02-20T00:14:20;101838.28;;;5.70;100.00
35151;BME280;55720;51.972;4.624;2023-02-20T00:16:46;101858.41;;;5.69;100.00
35151;BME280;55720;51.972;4.624;2023-02-20T00:19:12;101854.91;;;5.63;100.00
35151;BME280;55720;51.972;4.624;2023-02-20T00:21:43;101856.25;;;5.61;100.00
35151;BME280;55720;51.972;4.624;2023-02-20T00:24:09;101859.53;;;5.58;100.00
35151;BME280;55720;51.972;4.624;2023-02-20T00:26:34;101874.25;;;5.52;100.00
35151;BME280;55720;51.972;4.624;2023-02-20T00:28:59;101878.34;;;5.49;100.00
35151;BME280;55720;51.972;4.624;2023-02-20T00:31:25;101878.88;;;5.51;100.00
35151;BME280;55720;51.972;4.624;2023-02-20T00:33:50;101893.06;;;5.53;100.00
35151;BME280;55720;51.972;4.624;2023-02-20T00:36:17;101898.22;;;5.44;100.00
35151;BME280;55720;51.972;4.624;2023-02-20T00:38:43;101905.56;;;5.44;100.00
35151;BME280;55720;51.972;4.624;2023-02-20T00:41:10;101919.47;;;5.42;100.00
35151;BME280;55720;51.972;4.624;2023-02-20T00:43:38;101942.34;;;5.46;100.00
35151;BME280;55720;51.972;4.624;2023-02-20T00:46:04;101953.00;;;5.53;100.00
35151;BME280;55720;51.972;4.624;2023-02-20T00:48:29;101963.59;;;5.50;100.00
35151;BME280;55720;51.972;4.624;2023-02-20T00:50:54;101984.56;;;5.54;100.00
35151;BME280;55720;51.972;4.624;2023-02-20T00:53:20;102010.19;;;5.58;100.00
35151;BME280;55720;51.972;4.624;2023-02-20T00:55:45;102030.63;;;5.56;100.00
35151;BME280;55720;51.972;4.624;2023-02-20T00:58:10;102049.69;;;5.61;100.00
35151;BME280;55720;51.972;4.624;2023-02-20T01:00:36;102061.97;;;5.63;100.00
35151;BME280;55720;51.972;4.624;2023-02-20T01:03:01;102081.03;;;5.68;100.00
35151;BME280;55720;51.972;4.624;2023-02-20T01:05:27;102086.50;;;5.63;100.00
35151;BME280;55720;51.972;4.624;2023-02-20T01:07:52;102105.25;;;5.55;100.00
35151;BME280;55720;51.972;4.624;2023-02-20T01:10:18;102112.38;;;5.66;100.00
35151;BME280;55720;51.972;4.624;2023-02-20T01:12:43;102145.06;;;5.66;100.00
35151;BME280;55720;51.972;4.624;2023-02-20T01:15:10;102159.22;;;5.63;100.00
35151;BME280;55720;51.972;4.624;2023-02-20T01:17:36;102169.34;;;5.72;100.00
35151;BME280;55720;51.972;4.624;2023-02-20T01:20:02;102189.25;;;5.78;100.00
35151;BME280;55720;51.972;4.624;2023-02-20T01:22:27;102193.97;;;5.92;100.00
35151;BME280;55720;51.972;4.624;2023-02-20T01:24:52;102203.78;;;5.88;100.00
35151;BME280;55720;51.972;4.624;2023-02-20T01:27:18;102219.63;;;5.97;100.00
35151;BME280;55720;51.972;4.624;2023-02-20T01:29:43;102213.09;;;6.03;100.00
35151;BME280;55720;51.972;4.624;2023-02-20T01:32:12;102216.34;;;6.05;100.00
35151;BME280;55720;51.972;4.624;2023-02-20T01:34:37;102201.63;;;6.06;100.00
35151;BME280;55720;51.972;4.624;2023-02-20T01:37:03;102216.09;;;6.06;100.00
35151;BME280;55720;51.972;4.624;2023-02-20T01:39:28;102212.81;;;6.09;100.00
35151;BME280;55720;51.972;4.624;2023-02-20T01:42:01;102225.41;;;6.20;100.00
35151;BME280;55720;51.972;4.624;2023-02-20T01:44:32;102232.50;;;6.26;100.00
35151;BME280;55720;51.972;4.624;2023-02-20T01:46:59;102232.25;;;6.33;100.00
35151;BME280;55720;51.972;4.624;2023-02-20T01:51:59;102214.25;;;6.42;100.00
35151;BME280;55720;51.972;4.624;2023-02-20T01:54:27;102219.16;;;6.45;100.00
35151;BME280;55720;51.972;4.624;2023-02-20T01:56:56;102215.06;;;6.48;100.00
35151;BME280;55720;51.972;4.624;2023-02-20T01:59:24;102210.97;;;6.55;100.00
35151;BME280;55720;51.972;4.624;2023-02-20T02:01:51;102222.19;;;6.54;100.00
35151;BME280;55720;51.972;4.624;2023-02-20T02:04:17;102213.72;;;6.60;100.00
35151;BME280;55720;51.972;4.624;2023-02-20T02:06:46;102216.19;;;6.62;100.00
35151;BME280;55720;51.972;4.624;2023-02-20T02:10:15;102215.38;;;6.61;100.00
35151;BME280;55720;51.972;4.624;2023-02-20T02:12:08;102211.78;;;6.66;100.00
35151;BME280;55720;51.972;4.624;2023-02-20T02:14:33;102201.69;;;6.66;100.00
35151;BME280;55720;51.972;4.624;2023-02-20T02:22:54;102180.69;;;6.67;100.00
35151;BME280;55720;51.972;4.624;2023-02-20T02:25:38;102177.97;;;6.67;100.00
35151;BME280;55720;51.972;4.624;2023-02-20T02:39:59;102158.31;;;6.75;100.00
35151;BME280;55720;51.972;4.624;2023-02-20T02:42:42;102158.56;;;6.73;100.00
35151;BME280;55720;51.972;4.624;2023-02-20T02:45:29;102148.75;;;6.77;100.00
35151;BME280;55720;51.972;4.624;2023-02-20T02:50:34;102149.56;;;6.78;100.00
35151;BME280;55720;51.972;4.624;2023-02-20T02:53:02;102141.94;;;6.80;100.00
35151;BME280;55720;51.972;4.624;2023-02-20T02:55:29;102138.38;;;6.84;100.00
35151;BME280;55720;51.972;4.624;2023-02-20T02:57:55;102127.16;;;6.91;100.00
35151;BME280;55720;51.972;4.624;2023-02-20T03:00:27;102134.25;;;6.92;100.00
35151;BME280;55720;51.972;4.624;2023-02-20T03:02:59;102123.06;;;6.93;100.00
35151;BME280;55720;51.972;4.624;2023-02-20T03:05:33;102111.59;;;6.97;100.00
35151;BME280;55720;51.972;4.624;2023-02-20T03:11:16;102092.75;;;7.00;100.00
35151;BME280;55720;51.972;4.624;2023-02-20T03:13:46;102078.81;;;7.02;100.00
35151;BME280;55720;51.972;4.624;2023-02-20T03:19:08;102070.06;;;7.05;100.00
35151;BME280;55720;51.972;4.624;2023-02-20T03:21:41;102062.97;;;7.04;100.00
35151;BME280;55720;51.972;4.624;2023-02-20T03:24:10;102073.31;;;7.07;100.00
35151;BME280;55720;51.972;4.624;2023-02-20T03:26:39;102051.22;;;7.08;100.00
35151;BME280;55720;51.972;4.624;2023-02-20T03:29:20;102056.09;;;7.11;100.00
35151;BME280;55720;51.972;4.624;2023-02-20T03:31:59;102046.81;;;7.12;100.00
35151;BME280;55720;51.972;4.624;2023-02-20T03:34:46;102042.13;;;7.18;100.00
35151;BME280;55720;51.972;4.624;2023-02-20T03:37:33;102020.28;;;7.23;100.00
35151;BME280;55720;51.972;4.624;2023-02-20T03:40:19;102007.97;;;7.25;100.00
35151;BME280;55720;51.972;4.624;2023-02-20T03:43:09;101993.47;;;7.25;100.00
35151;BME280;55720;51.972;4.624;2023-02-20T04:20:28;101818.66;;;7.54;100.00
35151;BME280;55720;51.972;4.624;2023-02-20T04:22:58;101802.81;;;7.56;100.00
35151;BME280;55720;51.972;4.624;2023-02-20T04:25:41;101795.72;;;7.55;100.00
35151;BME280;55720;51.972;4.624;2023-02-20T04:28:09;101773.00;;;7.59;100.00
35151;BME280;55720;51.972;4.624;2023-02-20T04:30:35;101752.25;;;7.53;100.00
35151;BME280;55720;51.972;4.624;2023-02-20T04:33:04;101752.81;;;7.55;100.00
35151;BME280;55720;51.972;4.624;2023-02-20T04:35:29;101732.28;;;7.58;100.00
35151;BME280;55720;51.972;4.624;2023-02-20T04:37:55;101710.91;;;7.60;100.00
35151;BME280;55720;51.972;4.624;2023-02-20T04:40:22;101703.53;;;7.60;100.00
35151;BME280;55720;51.972;4.624;2023-02-20T04:42:48;101680.06;;;7.59;100.00
35151;BME280;55720;51.972;4.624;2023-02-20T04:45:13;101675.97;;;7.57;100.00
35151;BME280;55720;51.972;4.624;2023-02-20T04:47:39;101658.47;;;7.58;100.00
35151;BME280;55720;51.972;4.624;2023-02-20T04:50:05;101652.50;;;7.56;100.00
35151;BME280;55720;51.972;4.624;2023-02-20T04:52:30;101640.44;;;7.57;100.00
35151;BME280;55720;51.972;4.624;2023-02-20T04:54:56;101636.13;;;7.56;100.00
35151;BME280;55720;51.972;4.624;2023-02-20T04:57:21;101618.91;;;7.55;100.00
35151;BME280;55720;51.972;4.624;2023-02-20T04:59:47;101622.44;;;7.56;100.00
35151;BME280;55720;51.972;4.624;2023-02-20T05:02:13;101603.88;;;7.53;100.00
35151;BME280;55720;51.972;4.624;2023-02-20T05:04:39;101596.00;;;7.51;100.00
35151;BME280;55720;51.972;4.624;2023-02-20T05:07:04;101591.41;;;7.47;100.00
35151;BME280;55720;51.972;4.624;2023-02-20T05:09:30;101592.50;;;7.46;100.00
35151;BME280;55720;51.972;4.624;2023-02-20T05:11:56;101591.41;;;7.47;100.00
35151;BME280;55720;51.972;4.624;2023-02-20T05:14:22;101593.03;;;7.48;100.00
35151;BME280;55720;51.972;4.624;2023-02-20T05:16:48;101584.84;;;7.48;100.00
35151;BME280;55720;51.972;4.624;2023-02-20T05:19:16;101616.81;;;7.47;100.00
35151;BME280;55720;51.972;4.624;2023-02-20T05:21:42;101619.81;;;7.46;100.00
35151;BME280;55720;51.972;4.624;2023-02-20T05:24:27;101608.59;;;7.47;100.00
35151;BME280;55720;51.972;4.624;2023-02-20T05:26:53;101605.66;;;7.43;100.00
35151;BME280;55720;51.972;4.624;2023-02-20T05:29:19;101599.66;;;7.41;100.00
35151;BME280;55720;51.972;4.624;2023-02-20T05:31:44;101601.22;;;7.48;100.00
35151;BME280;55720;51.972;4.624;2023-02-20T05:34:10;101604.25;;;7.46;100.00
35151;BME280;55720;51.972;4.624;2023-02-20T05:36:35;101590.31;;;7.48;100.00
35151;BME280;55720;51.972;4.624;2023-02-20T05:39:01;101599.91;;;7.45;100.00
35151;BME280;55720;51.972;4.624;2023-02-20T05:41:26;101595.38;;;7.35;100.00
35151;BME280;55720;51.972;4.624;2023-02-20T05:43:52;101594.56;;;7.35;100.00
35151;BME280;55720;51.972;4.624;2023-02-20T05:46:22;101586.56;;;7.38;100.00
35151;BME280;55720;51.972;4.624;2023-02-20T05:48:48;101590.59;;;7.46;100.00
35151;BME280;55720;51.972;4.624;2023-02-20T05:51:25;101584.91;;;7.42;100.00
35151;BME280;55720;51.972;4.624;2023-02-20T05:53:51;101589.03;;;7.40;100.00
35151;BME280;55720;51.972;4.624;2023-02-20T05:56:16;101584.31;;;7.46;100.00
35151;BME280;55720;51.972;4.624;2023-02-20T05:58:43;101578.84;;;7.46;100.00
35151;BME280;55720;51.972;4.624;2023-02-20T06:01:18;101577.50;;;7.43;100.00
35151;BME280;55720;51.972;4.624;2023-02-20T06:03:44;101580.53;;;7.41;100.00
35151;BME280;55720;51.972;4.624;2023-02-20T06:06:10;101583.25;;;7.41;100.00
35151;BME280;55720;51.972;4.624;2023-02-20T06:08:35;101573.50;;;7.35;100.00
35151;BME280;55720;51.972;4.624;2023-02-20T06:11:00;101573.81;;;7.34;100.00
35151;BME280;55720;51.972;4.624;2023-02-20T06:13:25;101551.97;;;7.34;100.00
35151;BME280;55720;51.972;4.624;2023-02-20T06:15:51;101563.13;;;7.37;100.00
35151;BME280;55720;51.972;4.624;2023-02-20T06:18:16;101556.06;;;7.31;100.00
35151;BME280;55720;51.972;4.624;2023-02-20T06:20:42;101572.19;;;7.33;100.00
35151;BME280;55720;51.972;4.624;2023-02-20T06:23:07;101572.41;;;7.36;100.00
35151;BME280;55720;51.972;4.624;2023-02-20T06:25:32;101566.63;;;7.38;100.00
35151;BME280;55720;51.972;4.624;2023-02-20T06:27:58;101572.63;;;7.40;100.00
35151;BME280;55720;51.972;4.624;2023-02-20T06:30:23;101583.63;;;7.35;100.00
35151;BME280;55720;51.972;4.624;2023-02-20T06:32:48;101579.78;;;7.36;100.00
35151;BME280;55720;51.972;4.624;2023-02-20T06:35:14;101568.50;;;7.42;100.00
35151;BME280;55720;51.972;4.624;2023-02-20T06:37:40;101577.75;;;7.47;100.00
35151;BME280;55720;51.972;4.624;2023-02-20T06:40:05;101578.84;;;7.46;100.00
35151;BME280;55720;51.972;4.624;2023-02-20T06:42:31;101579.06;;;7.49;100.00
35151;BME280;55720;51.972;4.624;2023-02-20T06:44:56;101585.56;;;7.53;100.00
35151;BME280;55720;51.972;4.624;2023-02-20T06:47:21;101580.69;;;7.50;100.00
35151;BME280;55720;51.972;4.624;2023-02-20T06:49:47;101579.00;;;7.54;100.00
35151;BME280;55720;51.972;4.624;2023-02-20T06:52:12;101562.84;;;7.58;100.00
35151;BME280;55720;51.972;4.624;2023-02-20T06:54:39;101574.28;;;7.60;100.00
35151;BME280;55720;51.972;4.624;2023-02-20T06:57:05;101576.00;;;7.56;100.00
35151;BME280;55720;51.972;4.624;2023-02-20T06:59:30;101568.56;;;7.56;100.00
35151;BME280;55720;51.972;4.624;2023-02-20T07:01:56;101573.75;;;7.58;100.00
35151;BME280;55720;51.972;4.624;2023-02-20T07:04:25;101565.28;;;7.59;100.00
35151;BME280;55720;51.972;4.624;2023-02-20T07:06:53;101566.28;;;7.63;100.00
35151;BME280;55720;51.972;4.624;2023-02-20T07:09:18;101568.53;;;7.61;100.00
35151;BME280;55720;51.972;4.624;2023-02-20T07:11:44;101576.22;;;7.59;100.00
35151;BME280;55720;51.972;4.624;2023-02-20T07:14:10;101567.19;;;7.59;100.00
35151;BME280;55720;51.972;4.624;2023-02-20T07:16:35;101572.13;;;7.57;100.00
35151;BME280;55720;51.972;4.624;2023-02-20T07:19:01;101573.16;;;7.61;100.00
35151;BME280;55720;51.972;4.624;2023-02-20T07:21:26;101578.94;;;7.59;100.00
35151;BME280;55720;51.972;4.624;2023-02-20T07:23:52;101573.75;;;7.58;100.00
35151;BME280;55720;51.972;4.624;2023-02-20T07:26:26;101568.25;;;7.63;100.00
35151;BME280;55720;51.972;4.624;2023-02-20T07:28:53;101573.72;;;7.63;100.00
35151;BME280;55720;51.972;4.624;2023-02-20T07:31:18;101573.38;;;7.64;100.00
35151;BME280;55720;51.972;4.624;2023-02-20T07:33:44;101580.50;;;7.65;100.00
35151;BME280;55720;51.972;4.624;2023-02-20T07:36:11;101573.94;;;7.66;100.00
35151;BME280;55720;51.972;4.624;2023-02-20T07:38:37;101576.66;;;7.66;100.00
35151;BME280;55720;51.972;4.624;2023-02-20T07:41:03;101579.16;;;7.81;100.00
35151;BME280;55720;51.972;4.624;2023-02-20T07:43:29;101572.81;;;7.86;100.00
35151;BME280;55720;51.972;4.624;2023-02-20T07:45:54;101564.22;;;7.92;100.00
35151;BME280;55720;51.972;4.624;2023-02-20T07:48:19;101561.13;;;7.99;100.00
35151;BME280;55720;51.972;4.624;2023-02-20T07:50:45;101553.16;;;8.03;100.00
35151;BME280;55720;51.972;4.624;2023-02-20T07:53:14;101552.75;;;8.09;100.00
35151;BME280;55720;51.972;4.624;2023-02-20T07:55:40;101543.53;;;8.05;100.00
35151;BME280;55720;51.972;4.624;2023-02-20T07:58:06;101542.44;;;8.06;100.00
35151;BME280;55720;51.972;4.624;2023-02-20T08:00:31;101542.31;;;8.11;100.00
35151;BME280;55720;51.972;4.624;2023-02-20T08:02:57;101535.47;;;8.14;100.00
35151;BME280;55720;51.972;4.624;2023-02-20T08:05:23;101536.56;;;8.13;100.00
35151;BME280;55720;51.972;4.624;2023-02-20T08:07:50;101534.03;;;8.16;100.00
35151;BME280;55720;51.972;4.624;2023-02-20T08:10:17;101536.59;;;8.26;100.00
35151;BME280;55720;51.972;4.624;2023-02-20T08:12:44;101522.56;;;8.33;100.00
35151;BME280;55720;51.972;4.624;2023-02-20T08:15:10;101536.59;;;8.26;100.00
35151;BME280;55720;51.972;4.624;2023-02-20T08:17:39;101530.56;;;8.29;100.00
35151;BME280;55720;51.972;4.624;2023-02-20T08:20:07;101528.94;;;8.28;100.00
35151;BME280;55720;51.972;4.624;2023-02-20T08:22:33;101530.56;;;8.29;100.00
35151;BME280;55720;51.972;4.624;2023-02-20T08:24:59;101526.75;;;8.25;100.00
35151;BME280;55720;51.972;4.624;2023-02-20T08:27:25;101522.63;;;8.28;100.00
35151;BME280;55720;51.972;4.624;2023-02-20T08:29:52;101530.63;;;8.24;100.00
35151;BME280;55720;51.972;4.624;2023-02-20T08:32:17;101533.66;;;8.23;100.00
35151;BME280;55720;51.972;4.624;2023-02-20T08:34:43;101527.81;;;8.29;100.00
35151;BME280;55720;51.972;4.624;2023-02-20T08:37:16;101535.63;;;8.36;100.00
35151;BME280;55720;51.972;4.624;2023-02-20T08:39:41;101524.31;;;8.43;100.00
35151;BME280;55720;51.972;4.624;2023-02-20T08:42:07;101525.00;;;8.34;100.00
35151;BME280;55720;51.972;4.624;2023-02-20T08:44:32;101534.47;;;8.23;100.00
35151;BME280;55720;51.972;4.624;2023-02-20T08:46:57;101530.31;;;8.26;100.00
35151;BME280;55720;51.972;4.624;2023-02-20T08:49:23;101528.78;;;8.20;100.00
35151;BME280;55720;51.972;4.624;2023-02-20T08:51:52;101527.47;;;8.17;100.00
35151;BME280;55720;51.972;4.624;2023-02-20T08:54:18;101532.28;;;8.07;100.00
35151;BME280;55720;51.972;4.624;2023-02-20T08:56:43;101540.94;;;8.14;100.00
35151;BME280;55720;51.972;4.624;2023-02-20T08:59:09;101532.50;;;8.10;100.00
35151;BME280;55720;51.972;4.624;2023-02-20T09:01:35;101524.13;;;8.20;100.00
35151;BME280;55720;51.972;4.624;2023-02-20T09:04:00;101529.22;;;8.27;100.00
35151;BME280;55720;51.972;4.624;2023-02-20T09:06:26;101519.75;;;8.52;100.00
35151;BME280;55720;51.972;4.624;2023-02-20T09:08:53;101503.53;;;8.55;100.00
35151;BME280;55720;51.972;4.624;2023-02-20T09:11:18;101497.78;;;8.57;100.00
35151;BME280;55720;51.972;4.624;2023-02-20T09:13:45;101494.72;;;8.58;100.00
35151;BME280;55720;51.972;4.624;2023-02-20T09:16:13;101487.44;;;8.67;100.00
35151;BME280;55720;51.972;4.624;2023-02-20T09:18:38;101483.28;;;8.83;100.00
35151;BME280;55720;51.972;4.624;2023-02-20T09:21:08;101475.03;;;9.11;100.00
35151;BME280;55720;51.972;4.624;2023-02-20T09:23:33;101472.50;;;9.14;100.00
35151;BME280;55720;51.972;4.624;2023-02-20T09:25:59;101479.53;;;8.93;100.00
35151;BME280;55720;51.972;4.624;2023-02-20T09:28:24;101481.94;;;8.95;100.00
35151;BME280;55720;51.972;4.624;2023-02-20T09:30:49;101487.00;;;9.15;100.00
35151;BME280;55720;51.972;4.624;2023-02-20T09:33:19;101497.66;;;9.03;100.00
35151;BME280;55720;51.972;4.624;2023-02-20T09:35:44;101507.22;;;8.92;100.00
35151;BME280;55720;51.972;4.624;2023-02-20T09:38:10;101500.00;;;9.09;100.00
35151;BME280;55720;51.972;4.624;2023-02-20T09:40:35;101509.22;;;9.13;100.00
35151;BME280;55720;51.972;4.624;2023-02-20T09:46:20;101515.00;;;9.12;100.00
35151;BME280;55720;51.972;4.624;2023-02-20T09:51:33;101514.94;;;8.89;100.00
35151;BME280;55720;51.972;4.624;2023-02-20T09:55:03;101520.50;;;8.71;100.00
35151;BME280;55720;51.972;4.624;2023-02-20T09:57:00;101527.28;;;8.73;100.00
35151;BME280;55720;51.972;4.624;2023-02-20T09:59:52;101522.00;;;8.77;100.00
35151;BME280;55720;51.972;4.624;2023-02-20T10:02:26;101513.09;;;8.71;100.00
35151;BME280;55720;51.972;4.624;2023-02-20T10:04:56;101514.50;;;8.69;100.00
35151;BME280;55720;51.972;4.624;2023-02-20T10:07:34;101502.22;;;8.80;100.00
35151;BME280;55720;51.972;4.624;2023-02-20T10:10:16;101515.91;;;8.94;100.00
35151;BME280;55720;51.972;4.624;2023-02-20T10:21:14;101504.69;;;8.81;100.00
35151;BME280;55720;51.972;4.624;2023-02-20T10:23:57;101516.53;;;8.77;100.00
35151;BME280;55720;51.972;4.624;2023-02-20T10:26:39;101516.75;;;8.80;100.00
35151;BME280;55720;51.972;4.624;2023-02-20T10:29:17;101523.44;;;8.74;100.00
35151;BME280;55720;51.972;4.624;2023-02-20T10:31:50;101510.56;;;8.75;100.00
35151;BME280;55720;51.972;4.624;2023-02-20T10:34:23;101510.56;;;8.75;100.00
35151;BME280;55720;51.972;4.624;2023-02-20T10:37:07;101493.81;;;8.90;100.00
35151;BME280;55720;51.972;4.624;2023-02-20T10:39:35;101496.47;;;8.95;100.00
35151;BME280;55720;51.972;4.624;2023-02-20T10:42:17;101503.56;;;8.96;100.00
35151;BME280;55720;51.972;4.624;2023-02-20T10:45:07;101514.72;;;9.00;100.00
35151;BME280;55720;51.972;4.624;2023-02-20T10:47:52;101501.09;;;9.08;100.00
35151;BME280;55720;51.972;4.624;2023-02-20T10:53:26;101507.78;;;9.16;100.00
35151;BME280;55720;51.972;4.624;2023-02-20T10:58:48;101519.38;;;8.99;100.00
35151;BME280;55720;51.972;4.624;2023-02-20T11:01:20;101520.56;;;9.20;100.00
35151;BME280;55720;51.972;4.624;2023-02-20T11:04:14;101516.41;;;9.23;100.00
35151;BME280;55720;51.972;4.624;2023-02-20T11:06:44;101494.91;;;9.16;100.00
35151;BME280;55720;51.972;4.624;2023-02-20T11:09:10;101489.16;;;9.04;100.00
35151;BME280;55720;51.972;4.624;2023-02-20T11:11:41;101496.44;;;9.09;100.00
35151;BME280;55720;51.972;4.624;2023-02-20T11:17:08;101505.88;;;9.16;100.00
35151;BME280;55720;51.972;4.624;2023-02-20T11:19:47;101491.53;;;9.19;100.00
35151;BME280;55720;51.972;4.624;2023-02-20T11:22:15;101487.69;;;9.20;100.00
35151;BME280;55720;51.972;4.624;2023-02-20T11:24:43;101491.03;;;9.31;100.00
35151;BME280;55720;51.972;4.624;2023-02-20T11:27:12;101483.53;;;9.36;100.00
35151;BME280;55720;51.972;4.624;2023-02-20T11:29:52;101478.53;;;9.38;100.00
35151;BME280;55720;51.972;4.624;2023-02-20T11:32:23;101466.69;;;9.52;100.00
35151;BME280;55720;51.972;4.624;2023-02-20T11:37:44;101468.59;;;9.65;100.00
35151;BME280;55720;51.972;4.624;2023-02-20T11:40:27;101455.31;;;9.58;100.00
35151;BME280;55720;51.972;4.624;2023-02-20T11:42:53;101480.22;;;9.48;100.00
35151;BME280;55720;51.972;4.624;2023-02-20T11:45:27;101485.09;;;9.51;100.00
35151;BME280;55720;51.972;4.624;2023-02-20T11:48:17;101452.00;;;9.70;100.00
35151;BME280;55720;51.972;4.624;2023-02-20T11:50:46;101458.81;;;9.72;100.00
35151;BME280;55720;51.972;4.624;2023-02-20T11:53:25;101466.91;;;9.77;100.00
35151;BME280;55720;51.972;4.624;2023-02-20T11:56:14;101462.97;;;9.70;100.00
35151;BME280;55720;51.972;4.624;2023-02-20T11:58:41;101473.94;;;9.70;100.00
35151;BME280;55720;51.972;4.624;2023-02-20T12:01:27;101490.63;;;9.60;100.00
35151;BME280;55720;51.972;4.624;2023-02-20T12:03:54;101479.53;;;9.43;100.00
35151;BME280;55720;51.972;4.624;2023-02-20T12:06:41;101472.66;;;9.31;100.00
35151;BME280;55720;51.972;4.624;2023-02-20T12:09:27;101466.69;;;9.29;100.00
35151;BME280;55720;51.972;4.624;2023-02-20T12:11:53;101447.00;;;9.27;100.00
35151;BME280;55720;51.972;4.624;2023-02-20T12:14:21;101432.59;;;9.44;100.00
35151;BME280;55720;51.972;4.624;2023-02-20T12:17:12;101447.38;;;9.34;100.00
35151;BME280;55720;51.972;4.624;2023-02-20T12:19:47;101465.44;;;9.35;100.00
35151;BME280;55720;51.972;4.624;2023-02-20T12:22:32;101462.13;;;9.25;100.00
35151;BME280;55720;51.972;4.624;2023-02-20T12:25:22;101438.66;;;9.32;100.00
35151;BME280;55720;51.972;4.624;2023-02-20T12:27:56;101408.00;;;9.30;100.00
35151;BME280;55720;51.972;4.624;2023-02-20T12:31:27;101413.25;;;9.63;100.00
35151;BME280;55720;51.972;4.624;2023-02-20T12:36:24;101457.28;;;9.44;100.00
35151;BME280;55720;51.972;4.624;2023-02-20T12:39:16;101453.63;;;9.49;100.00
35151;BME280;55720;51.972;4.624;2023-02-20T12:41:48;101442.91;;;9.61;100.00
35151;BME280;55720;51.972;4.624;2023-02-20T12:54:56;101408.88;;;9.84;100.00
35151;BME280;55720;51.972;4.624;2023-02-20T13:00:07;101419.22;;;9.87;100.00
35151;BME280;55720;51.972;4.624;2023-02-20T13:02:44;101409.31;;;10.30;100.00
35151;BME280;55720;51.972;4.624;2023-02-20T13:05:15;101427.72;;;10.30;100.00
35151;BME280;55720;51.972;4.624;2023-02-20T13:07:50;101452.59;;;10.11;100.00
35151;BME280;55720;51.972;4.624;2023-02-20T13:12:47;101458.78;;;10.17;100.00
35151;BME280;55720;51.972;4.624;2023-02-20T13:15:23;101474.31;;;9.99;100.00
35151;BME280;55720;51.972;4.624;2023-02-20T13:17:55;101475.69;;;10.10;100.00
35151;BME280;55720;51.972;4.624;2023-02-20T13:20:27;101486.19;;;9.86;100.00
35151;BME280;55720;51.972;4.624;2023-02-20T13:23:23;101487.16;;;9.68;100.00
35151;BME280;55720;51.972;4.624;2023-02-20T13:25:51;101473.94;;;9.48;100.00
35151;BME280;55720;51.972;4.624;2023-02-20T13:28:28;101470.31;;;9.38;100.00
35151;BME280;55720;51.972;4.624;2023-02-20T13:31:13;101463.31;;;9.32;100.00
35151;BME280;55720;51.972;4.624;2023-02-20T13:33:45;101465.31;;;9.40;100.00
35151;BME280;55720;51.972;4.624;2023-02-20T13:39:24;101430.16;;;9.20;100.00
35151;BME280;55720;51.972;4.624;2023-02-20T13:52:30;101408.44;;;9.46;100.00
35151;BME280;55720;51.972;4.624;2023-02-20T14:05:38;101408.00;;;9.30;100.00
35151;BME280;55720;51.972;4.624;2023-02-20T14:08:04;101398.84;;;9.35;100.00
35151;BME280;55720;51.972;4.624;2023-02-20T14:10:33;101391.44;;;9.35;100.00
35151;BME280;55720;51.972;4.624;2023-02-20T14:13:05;101389.34;;;9.32;100.00
35151;BME280;55720;51.972;4.624;2023-02-20T14:15:48;101379.59;;;9.49;100.00
35151;BME280;55720;51.972;4.624;2023-02-20T14:18:19;101385.34;;;9.38;100.00
35151;BME280;55720;51.972;4.624;2023-02-20T14:20:47;101387.69;;;9.31;100.00
35151;BME280;55720;51.972;4.624;2023-02-20T14:23:20;101380.84;;;9.20;100.00
35151;BME280;55720;51.972;4.624;2023-02-20T14:25:57;101373.63;;;9.24;100.00
35151;BME280;55720;51.972;4.624;2023-02-20T14:28:23;101368.63;;;9.26;100.00
35151;BME280;55720;51.972;4.624;2023-02-20T14:34:08;101349.69;;;9.16;100.00
35151;BME280;55720;51.972;4.624;2023-02-20T14:36:55;101344.78;;;9.27;100.00
35151;BME280;55720;51.972;4.624;2023-02-20T14:42:20;101332.09;;;9.31;100.00
35151;BME280;55720;51.972;4.624;2023-02-20T14:44:48;101335.38;;;9.42;100.00
35151;BME280;55720;51.972;4.624;2023-02-20T14:47:15;101331.53;;;9.20;100.00
35151;BME280;55720;51.972;4.624;2023-02-20T14:49:41;101336.00;;;9.16;100.00
35151;BME280;55720;51.972;4.624;2023-02-20T14:54:36;101329.53;;;9.12;100.00
35151;BME280;55720;51.972;4.624;2023-02-20T14:57:02;101331.25;;;9.08;100.00
35151;BME280;55720;51.972;4.624;2023-02-20T14:59:31;101335.06;;;8.99;100.00
35151;BME280;55720;51.972;4.624;2023-02-20T15:02:09;101315.16;;;9.07;100.00
35151;BME280;55720;51.972;4.624;2023-02-20T15:04:45;101315.97;;;9.07;100.00
35151;BME280;55720;51.972;4.624;2023-02-20T15:07:11;101322.94;;;9.13;100.00
35151;BME280;55720;51.972;4.624;2023-02-20T15:09:39;101313.09;;;9.12;100.00
35151;BME280;55720;51.972;4.624;2023-02-20T15:12:05;101307.31;;;9.14;100.00
35151;BME280;55720;51.972;4.624;2023-02-20T15:14:41;101312.28;;;9.12;100.00
35151;BME280;55720;51.972;4.624;2023-02-20T15:19:40;101316.69;;;8.99;100.00
35151;BME280;55720;51.972;4.624;2023-02-20T15:22:21;101322.66;;;9.01;100.00
35151;BME280;55720;51.972;4.624;2023-02-20T15:24:47;101300.66;;;9.06;100.00
35151;BME280;55720;51.972;4.624;2023-02-20T15:27:17;101295.84;;;9.12;100.00
35151;BME280;55720;51.972;4.624;2023-02-20T15:29:45;101311.22;;;9.21;100.00